River Hebert, Canada
Current Conditions -  °F | °C
As of 2:00 AM on Tuesday 21 Oct 2014 (Local Time) from CYQM Reporting Station
Scattered Clouds Scattered Clouds  
Wind Chill: 26°   Ceiling: Unl
Heat Index: 34°   Visibility: 15mi
Dew Point: 28°   Wind: 9mph
Humidity: 81%   Direction: 240°WSW
Pressure: 29.96"   Gusts: NA
Location:  45.68°N, 64.38°W
Report Text: CYQM 210500Z 24008KT 15SM FEW120 SCT220 01/M02 A2996 RMK AC2CI1 SLP148
Loading
Personal Weather Stations






























Interactive Weather Map
Tropical Storm Tracking
New forecast layout! Learn more

10-Day Weather Forecast

Advertisements
Track Severe Weather on mobile